Terminal Aerodrome Forecast
Issued by NWS Charleston, WV

Current Version | Previous Version | Text Only | Print | Product List | Glossary Off
Versions: 1 2 3 4 5 6 7 8 9 10 11 12 13 14 15 16 17 18 19 20 21 22 23 24 25 26

625
FTUS41 KRLX 211120
TAFPKB
TAF
KPKB 211120Z 2112/2212 00000KT 2SM BR SCT001 SCT050
     FM211230 15003KT 3SM BR FEW001 BKN250
     FM211300 16003KT 6SM BR SCT010 BKN250
     FM211400 16004KT P6SM BKN025
     FM211600 19006KT P6SM BKN040
     FM220000 17003KT P6SM BKN070=

USA.gov is the U.S. government's official web portal to all federal, state and local government web resources and services.